Time;durP1;ratioP1;P1;durP2;ratioP2;P2;SDS_P1;SDS_P2;PMS_P1;PMS_P2;Temp;Humidity;BMP_temperature;BMP_pressure;BME280_temperature;BME280_humidity;BME280_pressure;Samples;Min_cycle;Max_cycle;Signal;HPM_P1;HPM_P2
2022/02/12 00:01:57;;;;;;;8.32;2.30;;;;;;;;;;6180013;23;20028;-83
2022/02/12 00:04:23;;;;;;;9.95;2.22;;;;;;;;;;6181432;23;20104;-83
2022/02/12 00:06:49;;;;;;;6.13;2.10;;;;;;;;;;6181990;23;20047;-83
2022/02/12 00:09:15;;;;;;;6.35;3.28;;;;;;;;;;6206389;23;20051;-83
2022/02/12 00:11:41;;;;;;;8.20;2.55;;;;;;;;;;6208340;23;20017;-83
2022/02/12 00:14:06;;;;;;;7.32;2.10;;;;;;;;;;6181601;23;20077;-83
2022/02/12 00:16:32;;;;;;;11.30;2.55;;;;;;;;;;6156178;23;20079;-83
2022/02/12 00:18:58;;;;;;;9.35;2.53;;;;;;;;;;6181595;23;20402;-83
2022/02/12 00:21:24;;;;;;;3.78;1.98;;;;;;;;;;6180708;23;20462;-83
2022/02/12 00:23:50;;;;;;;7.47;2.15;;;;;;;;;;6181353;23;20116;-83
2022/02/12 00:26:16;;;;;;;6.80;2.50;;;;;;;;;;6185134;23;20016;-83
2022/02/12 00:28:42;;;;;;;8.20;3.47;;;;;;;;;;6207779;23;20051;-83
2022/02/12 00:31:10;;;;;;;6.07;2.20;;;;;;;;;;6185058;22;20016;-82
2022/02/12 00:33:36;;;;;;;11.38;2.25;;;;;;;;;;6185111;23;20070;-83
2022/02/12 00:36:01;;;;;;;10.77;2.53;;;;;;;;;;6157105;23;20024;-82
2022/02/12 00:38:27;;;;;;;6.28;2.53;;;;;;;;;;6181107;23;20016;-82
2022/02/12 00:40:53;;;;;;;3.78;2.10;;;;;;;;;;6181454;23;20020;-82
2022/02/12 00:43:18;;;;;;;9.85;2.63;;;;;;;;;;6205411;23;20020;-82
2022/02/12 00:45:46;;;;;;;10.75;2.17;;;;;;;;;;6155749;23;20028;-82
2022/02/12 00:48:12;;;;;;;5.45;3.47;;;;;;;;;;6181425;23;20379;-82
2022/02/12 00:50:38;;;;;;;12.00;3.83;;;;;;;;;;6196921;23;20123;-82
2022/02/12 00:53:03;;;;;;;7.75;3.10;;;;;;;;;;6182428;23;20371;-83
2022/02/12 00:55:29;;;;;;;7.70;2.50;;;;;;;;;;6205577;23;20378;-83
2022/02/12 00:57:55;;;;;;;7.75;2.20;;;;;;;;;;6205361;23;20092;-82
2022/02/12 01:00:21;;;;;;;10.23;4.60;;;;;;;;;;6156065;23;20020;-82
2022/02/12 01:02:47;;;;;;;8.63;2.55;;;;;;;;;;6231240;22;20023;-82
2022/02/12 01:05:12;;;;;;;6.68;2.17;;;;;;;;;;6237208;23;20361;-82
2022/02/12 01:07:38;;;;;;;5.82;1.73;;;;;;;;;;6210768;23;20012;-82
2022/02/12 01:10:04;;;;;;;10.40;3.60;;;;;;;;;;6210356;23;20415;-82
2022/02/12 01:12:30;;;;;;;18.52;6.38;;;;;;;;;;6209848;23;20020;-82
2022/02/12 01:14:56;;;;;;;13.77;4.22;;;;;;;;;;6210998;23;20020;-82
2022/02/12 01:17:21;;;;;;;9.43;3.22;;;;;;;;;;6210321;23;20088;-82
2022/02/12 01:19:49;;;;;;;7.07;3.10;;;;;;;;;;6210454;23;20082;-82
2022/02/12 01:22:16;;;;;;;6.60;2.72;;;;;;;;;;6211007;23;20020;-82
2022/02/12 01:24:42;;;;;;;10.13;3.00;;;;;;;;;;6185713;23;20531;-82
2022/02/12 01:27:08;;;;;;;7.22;2.80;;;;;;;;;;6184925;23;20020;-83
2022/02/12 01:29:34;;;;;;;14.82;3.03;;;;;;;;;;6209174;23;20355;-82
2022/02/12 01:32:04;;;;;;;8.40;2.72;;;;;;;;;;6211301;23;20035;-83
2022/02/12 01:34:33;;;;;;;11.30;2.83;;;;;;;;;;6187286;23;20067;-83
2022/02/12 01:37:01;;;;;;;8.75;2.50;;;;;;;;;;6209756;23;20030;-83
2022/02/12 01:39:26;;;;;;;11.32;2.60;;;;;;;;;;6185110;23;20020;-82
2022/02/12 01:41:53;;;;;;;11.75;2.97;;;;;;;;;;6185365;22;20492;-83
2022/02/12 01:44:30;;;;;;;6.13;2.13;;;;;;;;;;6212686;23;20047;-82
2022/02/12 01:46:56;;;;;;;9.73;2.45;;;;;;;;;;6186690;23;20135;-83
2022/02/12 01:49:22;;;;;;;7.25;2.50;;;;;;;;;;6211650;23;20009;-83
2022/02/12 01:51:47;;;;;;;6.85;2.40;;;;;;;;;;6212752;23;20368;-83
2022/02/12 01:54:13;;;;;;;6.57;2.35;;;;;;;;;;6212512;23;20036;-83
2022/02/12 01:56:39;;;;;;;5.70;2.35;;;;;;;;;;6211583;23;20012;-83
2022/02/12 01:59:05;;;;;;;6.93;2.67;;;;;;;;;;6212330;23;20024;-83
2022/02/12 02:01:30;;;;;;;8.90;2.95;;;;;;;;;;6211160;23;20445;-83
2022/02/12 02:03:57;;;;;;;8.88;2.65;;;;;;;;;;6211997;22;20035;-83
2022/02/12 02:06:23;;;;;;;7.60;2.50;;;;;;;;;;6212230;23;20460;-83
2022/02/12 02:08:49;;;;;;;11.10;2.83;;;;;;;;;;6212235;23;20012;-83
2022/02/12 02:11:15;;;;;;;6.28;2.88;;;;;;;;;;6186788;23;20413;-83
2022/02/12 02:13:41;;;;;;;12.27;2.83;;;;;;;;;;6212438;23;20532;-83
2022/02/12 02:16:13;;;;;;;8.38;2.67;;;;;;;;;;6211451;23;20036;-84
2022/02/12 02:18:39;;;;;;;12.52;2.92;;;;;;;;;;6211275;23;20072;-83
2022/02/12 02:21:06;;;;;;;10.45;2.70;;;;;;;;;;6186723;23;20024;-84
2022/02/12 02:23:38;;;;;;;9.25;2.72;;;;;;;;;;6210993;23;20063;-84
2022/02/12 02:26:04;;;;;;;7.25;3.25;;;;;;;;;;6187100;23;20468;-83
2022/02/12 02:28:29;;;;;;;13.32;3.53;;;;;;;;;;6211978;23;20019;-84
2022/02/12 02:30:55;;;;;;;8.75;2.63;;;;;;;;;;6212757;23;20119;-83
2022/02/12 02:33:21;;;;;;;14.70;3.22;;;;;;;;;;6212863;23;20051;-83
2022/02/12 02:35:47;;;;;;;11.45;3.08;;;;;;;;;;6214037;23;20024;-84
2022/02/12 02:38:15;;;;;;;11.77;3.28;;;;;;;;;;6212649;23;20012;-84
2022/02/12 02:40:42;;;;;;;14.60;3.45;;;;;;;;;;6187318;23;20327;-84
2022/02/12 02:43:08;;;;;;;9.40;3.53;;;;;;;;;;6188417;23;20106;-84
2022/02/12 02:45:34;;;;;;;10.77;4.22;;;;;;;;;;6187387;23;20042;-84
2022/02/12 02:48:01;;;;;;;13.68;3.78;;;;;;;;;;6212777;23;20082;-84
2022/02/12 02:56:00;;;;;;;9.45;3.45;;;;;;;;;;6216921;23;20306;-84
2022/02/12 02:58:30;;;;;;;10.38;3.17;;;;;;;;;;6188389;23;20020;-84
2022/02/12 03:00:56;;;;;;;8.98;3.42;;;;;;;;;;6212080;23;20027;-85
2022/02/12 03:03:22;;;;;;;12.75;4.07;;;;;;;;;;6184210;23;20020;-85
2022/02/12 03:05:48;;;;;;;10.10;3.45;;;;;;;;;;6210363;23;20031;-84
2022/02/12 03:08:14;;;;;;;9.85;3.53;;;;;;;;;;6210744;23;20020;-84
2022/02/12 03:10:39;;;;;;;9.05;4.72;;;;;;;;;;6209989;23;20015;-84
2022/02/12 03:13:05;;;;;;;13.60;4.18;;;;;;;;;;6210978;23;20074;-84
2022/02/12 03:15:31;;;;;;;9.57;3.80;;;;;;;;;;6186349;23;20527;-83
2022/02/12 03:17:56;;;;;;;10.32;3.60;;;;;;;;;;6210762;23;20053;-83
2022/02/12 03:20:22;;;;;;;7.90;3.47;;;;;;;;;;6210894;23;20470;-83
2022/02/12 03:22:48;;;;;;;13.07;4.68;;;;;;;;;;6210562;23;20020;-83
2022/02/12 03:25:13;;;;;;;8.85;3.72;;;;;;;;;;6209836;23;20560;-83
2022/02/12 03:27:39;;;;;;;9.32;3.55;;;;;;;;;;6210707;23;20078;-83
2022/02/12 03:30:05;;;;;;;15.55;4.20;;;;;;;;;;6209771;23;20463;-83
2022/02/12 03:32:31;;;;;;;12.80;3.80;;;;;;;;;;6210022;23;20051;-83
2022/02/12 03:34:57;;;;;;;9.82;4.25;;;;;;;;;;6210692;23;20032;-83
2022/02/12 03:37:26;;;;;;;14.15;3.75;;;;;;;;;;6209887;23;20024;-83
2022/02/12 03:39:52;;;;;;;6.45;3.55;;;;;;;;;;6210264;23;20103;-83
2022/02/12 03:42:18;;;;;;;11.15;4.35;;;;;;;;;;6183437;23;20030;-83
2022/02/12 03:44:43;;;;;;;10.02;3.50;;;;;;;;;;6184757;23;20024;-84
2022/02/12 03:47:09;;;;;;;11.20;4.13;;;;;;;;;;6210071;23;20054;-84
2022/02/12 03:49:35;;;;;;;12.07;5.30;;;;;;;;;;6209234;23;20027;-83
2022/02/12 03:52:01;;;;;;;9.85;4.32;;;;;;;;;;6210068;23;20020;-84
2022/02/12 03:54:27;;;;;;;10.55;4.28;;;;;;;;;;6209090;23;20091;-83
2022/02/12 03:56:52;;;;;;;11.65;4.00;;;;;;;;;;6185093;23;20024;-83
2022/02/12 03:59:18;;;;;;;13.00;4.75;;;;;;;;;;6210220;23;20020;-83
2022/02/12 04:01:44;;;;;;;7.85;3.97;;;;;;;;;;6137077;23;1151542;-83
2022/02/12 04:04:09;;;;;;;14.00;4.22;;;;;;;;;;6211969;23;20410;-83
2022/02/12 04:06:35;;;;;;;10.15;3.90;;;;;;;;;;6211053;23;20047;-83
2022/02/12 04:09:01;;;;;;;11.10;4.03;;;;;;;;;;6210639;23;20097;-83
2022/02/12 04:11:26;;;;;;;10.50;4.50;;;;;;;;;;6186001;23;20020;-83
2022/02/12 04:13:52;;;;;;;8.27;3.78;;;;;;;;;;6211226;23;20020;-83
2022/02/12 04:16:18;;;;;;;9.93;4.10;;;;;;;;;;6212427;23;20042;-83
2022/02/12 04:18:45;;;;;;;9.23;4.47;;;;;;;;;;6209633;23;20069;-83
2022/02/12 04:21:11;;;;;;;10.38;3.80;;;;;;;;;;6211352;23;20393;-83
2022/02/12 04:23:37;;;;;;;10.77;3.90;;;;;;;;;;6185698;23;20416;-83
2022/02/12 04:26:05;;;;;;;18.58;4.75;;;;;;;;;;6210683;22;20051;-83
2022/02/12 04:28:36;;;;;;;10.23;4.00;;;;;;;;;;6210918;23;20144;-83
2022/02/12 04:31:02;;;;;;;13.48;3.95;;;;;;;;;;6186754;23;20024;-83
2022/02/12 04:33:28;;;;;;;12.75;4.85;;;;;;;;;;6184889;23;20074;-83
2022/02/12 04:35:54;;;;;;;11.77;4.32;;;;;;;;;;6209857;23;20020;-83
2022/02/12 04:38:19;;;;;;;10.13;4.10;;;;;;;;;;6210208;23;20054;-83
2022/02/12 04:40:45;;;;;;;9.35;3.70;;;;;;;;;;6212108;23;20044;-83
2022/02/12 04:43:11;;;;;;;9.90;3.75;;;;;;;;;;6211472;23;20399;-83
2022/02/12 04:45:36;;;;;;;10.85;4.28;;;;;;;;;;6185742;23;20024;-83
2022/02/12 04:48:02;;;;;;;9.35;3.92;;;;;;;;;;6186047;23;20032;-83
2022/02/12 04:50:28;;;;;;;14.18;4.35;;;;;;;;;;6209955;23;20016;-83
2022/02/12 04:52:54;;;;;;;10.93;3.95;;;;;;;;;;6211420;23;20082;-83
2022/02/12 04:55:19;;;;;;;17.13;4.95;;;;;;;;;;6185767;23;20619;-83
2022/02/12 04:57:45;;;;;;;13.38;5.68;;;;;;;;;;6185247;23;20115;-83
2022/02/12 05:00:11;;;;;;;17.95;4.65;;;;;;;;;;6185315;23;20349;-83
2022/02/12 05:02:37;;;;;;;9.88;4.32;;;;;;;;;;6209667;23;20048;-83
2022/02/12 05:05:03;;;;;;;16.80;4.85;;;;;;;;;;6211750;22;20024;-83
2022/02/12 05:07:29;;;;;;;10.32;4.10;;;;;;;;;;6210357;23;20016;-83
2022/02/12 05:09:55;;;;;;;10.35;3.90;;;;;;;;;;6185007;23;20405;-83
2022/02/12 05:12:20;;;;;;;10.20;4.15;;;;;;;;;;6210317;23;20016;-82
2022/02/12 05:14:47;;;;;;;19.08;5.15;;;;;;;;;;6210895;23;20016;-83
2022/02/12 05:17:13;;;;;;;10.77;4.43;;;;;;;;;;6210769;22;20103;-83
2022/02/12 05:19:38;;;;;;;8.88;4.63;;;;;;;;;;6212227;22;20024;-83
2022/02/12 05:22:04;;;;;;;13.68;4.18;;;;;;;;;;6213479;23;20450;-83
2022/02/12 05:24:30;;;;;;;12.43;4.20;;;;;;;;;;6212896;23;20020;-83
2022/02/12 05:26:55;;;;;;;13.48;4.28;;;;;;;;;;6186922;23;20020;-83
2022/02/12 05:29:21;;;;;;;13.50;4.97;;;;;;;;;;6211139;23;20066;-83
2022/02/12 05:31:47;;;;;;;13.88;4.57;;;;;;;;;;6213018;23;20066;-83
2022/02/12 05:34:12;;;;;;;13.57;4.43;;;;;;;;;;6186803;23;20016;-83
2022/02/12 05:36:38;;;;;;;14.85;4.80;;;;;;;;;;6213015;23;20379;-84
2022/02/12 05:39:05;;;;;;;10.80;4.65;;;;;;;;;;6212967;23;20020;-83
2022/02/12 05:41:31;;;;;;;13.13;4.68;;;;;;;;;;6186515;23;20043;-83
2022/02/12 05:43:56;;;;;;;8.50;4.35;;;;;;;;;;6210332;23;20056;-83
2022/02/12 05:46:22;;;;;;;14.23;4.63;;;;;;;;;;6238151;23;20043;-83
2022/02/12 05:48:48;;;;;;;13.48;4.35;;;;;;;;;;6212465;23;20020;-83
2022/02/12 05:51:18;;;;;;;9.85;3.92;;;;;;;;;;6212688;23;20016;-84
2022/02/12 05:53:44;;;;;;;11.10;4.50;;;;;;;;;;6213065;23;20366;-83
2022/02/12 05:56:10;;;;;;;9.85;3.67;;;;;;;;;;6210938;23;20023;-83
2022/02/12 05:58:36;;;;;;;11.45;4.43;;;;;;;;;;6185792;23;20024;-83
2022/02/12 06:01:02;;;;;;;10.85;4.30;;;;;;;;;;6211714;23;20035;-84
2022/02/12 06:03:27;;;;;;;14.80;5.20;;;;;;;;;;6212642;23;20509;-84
2022/02/12 06:05:53;;;;;;;8.43;4.43;;;;;;;;;;6212018;23;20048;-84
2022/02/12 06:08:19;;;;;;;10.38;4.07;;;;;;;;;;6212850;23;20016;-84
2022/02/12 06:10:45;;;;;;;13.73;4.07;;;;;;;;;;6211856;23;20024;-84
2022/02/12 06:13:11;;;;;;;11.80;3.83;;;;;;;;;;6212084;23;20016;-84
2022/02/12 06:15:37;;;;;;;13.65;3.88;;;;;;;;;;6211691;23;20091;-84
2022/02/12 06:18:04;;;;;;;12.52;5.03;;;;;;;;;;6187366;23;20500;-84
2022/02/12 06:20:30;;;;;;;11.27;4.35;;;;;;;;;;6186353;23;20026;-83
2022/02/12 06:22:56;;;;;;;12.13;4.45;;;;;;;;;;6187500;23;20086;-84
2022/02/12 06:25:22;;;;;;;10.60;4.15;;;;;;;;;;6212626;23;20016;-84
2022/02/12 06:27:47;;;;;;;15.95;4.43;;;;;;;;;;6186415;23;20008;-84
2022/02/12 06:30:13;;;;;;;10.52;3.75;;;;;;;;;;6189500;23;20024;-84
2022/02/12 06:32:39;;;;;;;11.27;3.85;;;;;;;;;;6212453;23;20412;-84
2022/02/12 06:35:05;;;;;;;11.43;4.63;;;;;;;;;;6209859;23;20106;-84
2022/02/12 06:37:31;;;;;;;8.25;3.85;;;;;;;;;;6210163;23;20549;-84
2022/02/12 06:39:58;;;;;;;17.63;4.50;;;;;;;;;;6211292;23;20012;-83
2022/02/12 06:42:24;;;;;;;11.63;4.53;;;;;;;;;;6209765;23;20039;-83
2022/02/12 06:44:50;;;;;;;13.18;4.80;;;;;;;;;;6185209;23;20020;-83
2022/02/12 06:47:16;;;;;;;12.90;5.30;;;;;;;;;;6185440;23;20022;-83
2022/02/12 06:49:41;;;;;;;19.15;5.03;;;;;;;;;;6211606;23;20024;-85
2022/02/12 06:52:07;;;;;;;9.73;4.57;;;;;;;;;;6237055;23;20020;-86
2022/02/12 06:54:33;;;;;;;16.17;5.15;;;;;;;;;;6212334;23;20024;-86
2022/02/12 06:56:59;;;;;;;13.75;5.43;;;;;;;;;;6212362;23;20034;-86
2022/02/12 06:59:25;;;;;;;15.30;4.82;;;;;;;;;;6186651;23;20091;-86
2022/02/12 07:01:51;;;;;;;13.05;5.28;;;;;;;;;;6186478;23;20653;-86
2022/02/12 07:04:17;;;;;;;12.88;4.88;;;;;;;;;;6219192;23;20094;-85
2022/02/12 07:06:43;;;;;;;9.60;4.72;;;;;;;;;;6186541;23;20024;-86
2022/02/12 07:09:11;;;;;;;15.88;5.32;;;;;;;;;;6211722;23;20376;-86
2022/02/12 07:11:37;;;;;;;12.40;5.20;;;;;;;;;;6212114;23;20038;-86
2022/02/12 07:14:02;;;;;;;15.95;5.80;;;;;;;;;;6187572;23;20348;-86
2022/02/12 07:16:28;;;;;;;13.07;5.50;;;;;;;;;;6214951;22;20020;-86
2022/02/12 07:18:54;;;;;;;16.15;5.70;;;;;;;;;;6214196;23;20020;-86
2022/02/12 07:21:20;;;;;;;17.27;5.82;;;;;;;;;;6215000;23;20024;-86
2022/02/12 07:23:45;;;;;;;15.98;5.80;;;;;;;;;;6189943;23;20513;-85
2022/02/12 07:26:11;;;;;;;12.05;6.22;;;;;;;;;;6214989;23;20049;-86
2022/02/12 07:28:40;;;;;;;13.48;6.00;;;;;;;;;;6187873;23;20016;-86
2022/02/12 07:31:08;;;;;;;11.65;5.75;;;;;;;;;;6214794;23;20031;-86
2022/02/12 07:33:34;;;;;;;17.13;7.32;;;;;;;;;;6193692;23;20425;-86
2022/02/12 07:36:00;;;;;;;15.30;5.85;;;;;;;;;;6190149;23;20043;-86
2022/02/12 07:38:26;;;;;;;15.55;6.53;;;;;;;;;;6186981;23;20693;-86
2022/02/12 07:40:51;;;;;;;15.93;5.88;;;;;;;;;;6212234;23;20338;-86
2022/02/12 07:43:17;;;;;;;12.25;6.32;;;;;;;;;;6187015;23;20012;-86
2022/02/12 07:45:43;;;;;;;16.60;5.85;;;;;;;;;;6212178;23;20016;-86
2022/02/12 07:48:08;;;;;;;19.13;8.27;;;;;;;;;;6212105;23;20078;-86
2022/02/12 07:50:34;;;;;;;15.40;6.20;;;;;;;;;;6186977;23;20581;-86
2022/02/12 07:53:00;;;;;;;21.35;6.95;;;;;;;;;;6212945;23;20024;-86
2022/02/12 07:55:25;;;;;;;18.08;7.28;;;;;;;;;;6187069;23;20024;-86
2022/02/12 07:57:51;;;;;;;13.57;6.45;;;;;;;;;;6213431;23;20039;-87
2022/02/12 08:00:17;;;;;;;16.20;6.35;;;;;;;;;;6212190;23;20450;-87
2022/02/12 08:02:43;;;;;;;13.13;6.25;;;;;;;;;;6187406;23;20024;-86
2022/02/12 08:05:09;;;;;;;14.27;5.40;;;;;;;;;;6210287;23;20099;-86
2022/02/12 08:07:37;;;;;;;16.52;5.80;;;;;;;;;;6208364;23;20024;-87
2022/02/12 08:12:53;;;;;;;16.15;6.15;;;;;;;;;;6183863;23;20019;-87
2022/02/12 08:15:19;;;;;;;15.02;6.55;;;;;;;;;;6179241;23;20070;-87
2022/02/12 08:17:45;;;;;;;14.95;6.18;;;;;;;;;;6183627;23;20028;-87
2022/02/12 08:20:11;;;;;;;15.23;5.88;;;;;;;;;;6190822;23;20605;-87
2022/02/12 08:22:37;;;;;;;14.90;5.47;;;;;;;;;;6200865;22;20019;-87
2022/02/12 08:25:04;;;;;;;15.52;5.25;;;;;;;;;;6178045;23;20052;-87
2022/02/12 08:27:29;;;;;;;15.30;5.57;;;;;;;;;;6198526;22;20021;-87
2022/02/12 08:29:55;;;;;;;14.43;5.95;;;;;;;;;;6167067;23;20383;-87
2022/02/12 08:32:23;;;;;;;9.80;4.53;;;;;;;;;;6152443;23;20036;-87
2022/02/12 08:34:50;;;;;;;11.52;4.93;;;;;;;;;;6178565;23;20026;-87
2022/02/12 08:37:16;;;;;;;13.43;6.10;;;;;;;;;;6183910;23;20562;-87
2022/02/12 08:39:41;;;;;;;15.40;5.28;;;;;;;;;;6206338;23;20020;-87
2022/02/12 08:42:07;;;;;;;11.38;4.70;;;;;;;;;;6181041;23;20058;-87
2022/02/12 08:44:39;;;;;;;14.35;5.13;;;;;;;;;;6182310;23;20119;-87
2022/02/12 08:47:05;;;;;;;12.95;5.68;;;;;;;;;;6182971;23;20226;-87
2022/02/12 08:49:31;;;;;;;17.55;5.45;;;;;;;;;;6180776;23;20008;-87
2022/02/12 08:51:57;;;;;;;17.95;6.18;;;;;;;;;;6207653;23;20018;-87
2022/02/12 08:54:23;;;;;;;11.00;5.90;;;;;;;;;;6184115;23;20016;-87
2022/02/12 08:56:49;;;;;;;13.52;5.10;;;;;;;;;;6186910;23;20035;-87
2022/02/12 08:59:15;;;;;;;15.23;4.93;;;;;;;;;;6184855;23;20091;-87
2022/02/12 09:01:41;;;;;;;14.13;5.55;;;;;;;;;;6184708;23;20127;-87
2022/02/12 09:04:09;;;;;;;11.88;4.47;;;;;;;;;;6184760;23;20324;-87
2022/02/12 09:06:36;;;;;;;14.73;5.85;;;;;;;;;;6184647;23;20358;-87
2022/02/12 09:09:03;;;;;;;13.23;4.70;;;;;;;;;;6182537;23;20066;-87
2022/02/12 09:11:30;;;;;;;15.55;5.35;;;;;;;;;;6186069;23;20091;-86
2022/02/12 09:13:57;;;;;;;16.48;5.72;;;;;;;;;;6186044;23;20020;-86
2022/02/12 09:16:24;;;;;;;13.65;5.00;;;;;;;;;;6211211;23;20453;-87
2022/02/12 09:18:52;;;;;;;15.43;5.38;;;;;;;;;;6188116;23;20348;-87
2022/02/12 09:21:18;;;;;;;10.95;4.75;;;;;;;;;;6154046;23;20028;-87
2022/02/12 09:23:44;;;;;;;10.75;4.97;;;;;;;;;;6218348;22;20208;-87
2022/02/12 09:26:10;;;;;;;9.13;3.88;;;;;;;;;;6158986;22;20020;-88
2022/02/12 09:28:36;;;;;;;15.48;4.95;;;;;;;;;;6177106;23;20052;-88
2022/02/12 09:31:02;;;;;;;13.98;5.07;;;;;;;;;;6204349;23;20024;-87
2022/02/12 09:33:27;;;;;;;14.48;5.07;;;;;;;;;;6179251;23;20063;-86
2022/02/12 09:35:56;;;;;;;11.35;4.82;;;;;;;;;;6179033;23;20096;-87
2022/02/12 09:38:21;;;;;;;7.93;4.18;;;;;;;;;;6178863;23;20013;-88
2022/02/12 09:40:47;;;;;;;15.07;4.57;;;;;;;;;;6179044;23;20016;-87
2022/02/12 09:43:14;;;;;;;12.40;4.47;;;;;;;;;;6203282;23;20079;-87
2022/02/12 09:45:53;;;;;;;14.18;4.38;;;;;;;;;;6178565;23;20265;-86
2022/02/12 09:48:20;;;;;;;8.88;3.90;;;;;;;;;;6159815;23;20099;-86
2022/02/12 09:50:46;;;;;;;17.58;4.50;;;;;;;;;;6180178;23;20024;-86
2022/02/12 09:53:12;;;;;;;13.35;4.47;;;;;;;;;;6159811;23;20030;-86
2022/02/12 09:55:38;;;;;;;11.63;5.05;;;;;;;;;;6200333;23;20363;-86
2022/02/12 09:58:05;;;;;;;13.57;4.70;;;;;;;;;;6182106;23;20016;-86
2022/02/12 10:00:31;;;;;;;13.65;4.20;;;;;;;;;;6181993;23;20050;-87
2022/02/12 10:02:57;;;;;;;12.50;4.65;;;;;;;;;;6182403;23;20378;-86
2022/02/12 10:05:27;;;;;;;8.85;3.70;;;;;;;;;;6180838;23;20409;-86
2022/02/12 10:08:07;;;;;;;11.52;4.45;;;;;;;;;;6180276;23;20020;-86
2022/02/12 10:10:36;;;;;;;10.93;4.40;;;;;;;;;;6179833;23;20462;-86
2022/02/12 10:13:20;;;;;;;10.20;3.65;;;;;;;;;;6154372;23;20095;-86
2022/02/12 10:15:54;;;;;;;18.42;4.82;;;;;;;;;;6186293;23;20043;-85
2022/02/12 10:18:22;;;;;;;10.15;3.17;;;;;;;;;;6187607;23;20016;-84
2022/02/12 10:20:48;;;;;;;12.90;3.20;;;;;;;;;;6199412;23;20020;-86
2022/02/12 10:23:16;;;;;;;9.27;3.10;;;;;;;;;;6190509;23;20498;-86
2022/02/12 10:25:47;;;;;;;11.38;3.22;;;;;;;;;;6180585;23;20048;-87
2022/02/12 10:28:14;;;;;;;9.60;3.15;;;;;;;;;;6181263;23;20092;-86
2022/02/12 10:30:43;;;;;;;12.50;3.92;;;;;;;;;;6206812;23;20232;-87
2022/02/12 10:33:09;;;;;;;8.43;2.33;;;;;;;;;;6207481;23;20084;-86
2022/02/12 10:35:36;;;;;;;10.57;2.80;;;;;;;;;;6207385;23;20092;-86
2022/02/12 10:38:07;;;;;;;10.93;3.08;;;;;;;;;;6183390;23;20024;-86
2022/02/12 10:40:35;;;;;;;9.80;2.80;;;;;;;;;;6156961;23;20017;-86
2022/02/12 10:43:01;;;;;;;10.15;2.90;;;;;;;;;;6180969;23;20023;-86
2022/02/12 10:45:29;;;;;;;10.35;3.45;;;;;;;;;;6157151;23;20093;-86
2022/02/12 10:47:57;;;;;;;10.73;2.90;;;;;;;;;;6157581;23;20028;-86
2022/02/12 10:50:25;;;;;;;14.95;3.03;;;;;;;;;;6187655;23;20076;-86
2022/02/12 10:52:56;;;;;;;10.90;3.03;;;;;;;;;;6158625;23;20082;-87
2022/02/12 10:55:32;;;;;;;8.98;2.85;;;;;;;;;;6208263;23;20035;-87
2022/02/12 10:58:00;;;;;;;6.88;2.83;;;;;;;;;;6179207;22;20015;-86
2022/02/12 11:00:27;;;;;;;11.93;3.38;;;;;;;;;;6156939;23;20024;-87
2022/02/12 11:02:55;;;;;;;9.20;3.13;;;;;;;;;;6201941;22;20044;-86
2022/02/12 11:05:24;;;;;;;7.28;3.08;;;;;;;;;;6188337;23;20373;-87
2022/02/12 11:07:51;;;;;;;8.07;2.65;;;;;;;;;;6171406;23;20030;-87
2022/02/12 11:10:18;;;;;;;7.93;3.08;;;;;;;;;;6178837;23;20062;-86
2022/02/12 11:12:44;;;;;;;8.68;3.00;;;;;;;;;;6230767;23;20024;-87
2022/02/12 11:15:10;;;;;;;8.20;2.80;;;;;;;;;;6180339;23;20059;-87
2022/02/12 11:17:37;;;;;;;8.10;3.42;;;;;;;;;;6179977;23;20069;-87
2022/02/12 11:20:04;;;;;;;8.32;3.75;;;;;;;;;;6179325;23;20020;-87
2022/02/12 11:22:30;;;;;;;8.65;3.70;;;;;;;;;;6180345;23;20091;-87
2022/02/12 11:24:57;;;;;;;8.05;3.45;;;;;;;;;;6181013;23;20335;-87
2022/02/12 11:27:29;;;;;;;6.10;3.42;;;;;;;;;;6204955;23;20027;-88
2022/02/12 11:29:55;;;;;;;8.68;4.22;;;;;;;;;;6184940;23;20020;-87
2022/02/12 11:32:24;;;;;;;6.95;3.20;;;;;;;;;;6208940;23;20064;-87
2022/02/12 11:34:55;;;;;;;7.18;2.80;;;;;;;;;;6209438;23;20103;-87
2022/02/12 11:37:22;;;;;;;3.70;1.35;;;;;;;;;;6209181;23;20020;-87
2022/02/12 11:40:13;;;;;;;4.85;1.52;;;;;;;;;;6208651;23;20095;-87
2022/02/12 11:42:59;;;;;;;4.95;1.40;;;;;;;;;;6182867;23;20305;-87
2022/02/12 11:45:30;;;;;;;3.80;1.50;;;;;;;;;;6185702;23;20024;-87
2022/02/12 11:48:27;;;;;;;4.07;0.95;;;;;;;;;;6208812;23;20019;-87
2022/02/12 11:51:09;;;;;;;2.53;1.10;;;;;;;;;;6234017;23;20023;-86
2022/02/12 11:53:50;;;;;;;3.75;1.20;;;;;;;;;;6154131;23;20083;-87
2022/02/12 11:56:19;;;;;;;4.55;1.20;;;;;;;;;;6159430;23;20012;-87
2022/02/12 11:58:45;;;;;;;6.07;1.25;;;;;;;;;;6202745;23;20026;-87
2022/02/12 12:01:27;;;;;;;3.28;1.05;;;;;;;;;;6178278;23;20399;-87
2022/02/12 12:04:06;;;;;;;2.22;1.13;;;;;;;;;;6209458;23;20441;-86
2022/02/12 12:06:33;;;;;;;6.45;1.15;;;;;;;;;;6233204;22;20350;-87
2022/02/12 12:09:06;;;;;;;4.85;1.10;;;;;;;;;;6203221;23;20028;-87
2022/02/12 12:11:35;;;;;;;3.35;1.10;;;;;;;;;;6189164;23;20047;-87
2022/02/12 12:14:24;;;;;;;4.85;1.23;;;;;;;;;;6184979;23;20095;-87
2022/02/12 12:16:54;;;;;;;3.65;1.30;;;;;;;;;;6235255;23;20040;-86
2022/02/12 12:19:25;;;;;;;4.38;1.30;;;;;;;;;;6177035;22;20050;-86
2022/02/12 12:21:51;;;;;;;4.13;1.10;;;;;;;;;;6164186;23;20025;-87
2022/02/12 12:24:20;;;;;;;3.97;1.30;;;;;;;;;;6183005;23;20186;-87
2022/02/12 12:26:48;;;;;;;5.03;1.25;;;;;;;;;;6216302;23;20020;-87
2022/02/12 12:32:01;;;;;;;2.35;1.20;;;;;;;;;;6224576;23;20028;-86
2022/02/12 12:34:27;;;;;;;4.28;1.08;;;;;;;;;;6203434;23;20016;-86
2022/02/12 12:36:56;;;;;;;6.53;0.93;;;;;;;;;;6179965;23;20106;-85
2022/02/12 12:39:35;;;;;;;2.90;0.70;;;;;;;;;;6204149;23;20047;-87
2022/02/12 12:42:02;;;;;;;5.50;1.40;;;;;;;;;;6182416;23;20031;-87
2022/02/12 12:44:28;;;;;;;4.93;0.93;;;;;;;;;;6158216;23;20319;-87
2022/02/12 12:47:00;;;;;;;3.55;1.00;;;;;;;;;;6177625;23;20025;-86
2022/02/12 12:49:33;;;;;;;6.43;0.80;;;;;;;;;;6177879;23;20016;-87
2022/02/12 12:51:59;;;;;;;3.45;1.52;;;;;;;;;;6172483;23;20013;-86
2022/02/12 12:54:28;;;;;;;2.13;1.00;;;;;;;;;;6154418;23;20039;-86
2022/02/12 12:56:56;;;;;;;6.05;1.80;;;;;;;;;;6203338;23;20031;-87
2022/02/12 12:59:21;;;;;;;2.40;0.88;;;;;;;;;;6156704;23;20393;-86
2022/02/12 13:02:05;;;;;;;5.15;1.35;;;;;;;;;;6183581;23;20052;-85
2022/02/12 13:04:40;;;;;;;3.95;0.90;;;;;;;;;;6186127;23;20039;-85
2022/02/12 13:07:06;;;;;;;4.25;1.20;;;;;;;;;;6180989;23;20301;-86
2022/02/12 13:09:33;;;;;;;4.00;2.08;;;;;;;;;;6234464;22;20036;-85
2022/02/12 13:12:24;;;;;;;4.03;1.88;;;;;;;;;;6207811;23;20188;-85
2022/02/12 13:14:50;;;;;;;4.78;1.15;;;;;;;;;;6210029;23;20458;-85
2022/02/12 13:17:17;;;;;;;3.92;1.08;;;;;;;;;;6183639;23;20134;-85
2022/02/12 13:19:42;;;;;;;4.88;1.23;;;;;;;;;;6208696;23;20032;-86
2022/02/12 13:22:13;;;;;;;2.45;1.00;;;;;;;;;;6211561;23;20079;-86
2022/02/12 13:24:40;;;;;;;4.13;1.38;;;;;;;;;;6209743;23;20520;-86
2022/02/12 13:27:06;;;;;;;6.88;1.60;;;;;;;;;;6182169;23;20025;-86
2022/02/12 13:29:33;;;;;;;3.88;1.45;;;;;;;;;;6206135;23;20485;-85
2022/02/12 13:32:05;;;;;;;5.78;1.20;;;;;;;;;;6208965;23;20083;-86
2022/02/12 13:34:31;;;;;;;2.80;1.10;;;;;;;;;;6208804;23;20720;-86
2022/02/12 13:36:58;;;;;;;5.72;1.38;;;;;;;;;;6182190;23;20017;-86
2022/02/12 13:39:24;;;;;;;4.60;1.25;;;;;;;;;;6167419;23;20083;-86
2022/02/12 13:41:55;;;;;;;4.72;1.40;;;;;;;;;;6184274;23;20060;-86
2022/02/12 13:44:31;;;;;;;6.63;2.35;;;;;;;;;;6210139;23;20049;-86
2022/02/12 13:47:02;;;;;;;4.40;1.30;;;;;;;;;;6208635;23;20017;-86
2022/02/12 13:49:29;;;;;;;5.22;0.98;;;;;;;;;;6183902;23;20055;-86
2022/02/12 13:51:57;;;;;;;4.72;1.27;;;;;;;;;;6209881;23;20281;-86
2022/02/12 13:54:24;;;;;;;5.32;1.40;;;;;;;;;;6193393;23;20387;-87
2022/02/12 13:57:05;;;;;;;6.75;3.38;;;;;;;;;;6167577;23;20400;-86
2022/02/12 13:59:31;;;;;;;4.18;1.70;;;;;;;;;;6181475;23;20075;-86
2022/02/12 14:01:57;;;;;;;3.35;1.23;;;;;;;;;;6206895;23;20521;-86
2022/02/12 14:04:25;;;;;;;5.53;1.40;;;;;;;;;;6232748;22;20028;-87
2022/02/12 14:06:51;;;;;;;7.25;1.48;;;;;;;;;;6204526;23;20021;-87
2022/02/12 14:09:20;;;;;;;3.75;1.23;;;;;;;;;;6180112;23;20043;-87
2022/02/12 14:11:47;;;;;;;4.95;1.27;;;;;;;;;;6207985;23;20025;-86
2022/02/12 14:14:15;;;;;;;5.45;1.58;;;;;;;;;;6205024;23;20028;-87
2022/02/12 14:16:42;;;;;;;4.03;1.40;;;;;;;;;;6205547;23;20104;-86
2022/02/12 14:19:08;;;;;;;5.05;1.60;;;;;;;;;;6182626;23;20051;-87
2022/02/12 14:21:35;;;;;;;3.97;1.20;;;;;;;;;;6179777;23;20024;-86
2022/02/12 14:24:02;;;;;;;5.20;1.40;;;;;;;;;;6179465;23;20039;-87
2022/02/12 14:26:28;;;;;;;4.57;1.90;;;;;;;;;;6178829;23;20027;-86
2022/02/12 14:28:54;;;;;;;2.58;1.20;;;;;;;;;;6208029;23;20025;-86
2022/02/12 14:31:20;;;;;;;5.28;1.55;;;;;;;;;;6209205;23;20075;-86
2022/02/12 14:33:49;;;;;;;8.48;1.75;;;;;;;;;;6183802;23;20012;-87
2022/02/12 14:36:17;;;;;;;3.00;1.15;;;;;;;;;;6201255;23;20024;-87
2022/02/12 14:38:43;;;;;;;5.47;1.38;;;;;;;;;;6203780;23;20441;-86
2022/02/12 14:41:13;;;;;;;5.07;1.35;;;;;;;;;;6190359;23;20020;-86
2022/02/12 14:43:39;;;;;;;5.43;1.50;;;;;;;;;;6213740;23;20020;-87
2022/02/12 14:46:05;;;;;;;4.05;1.33;;;;;;;;;;6186993;23;20016;-87
2022/02/12 14:48:31;;;;;;;6.90;1.58;;;;;;;;;;6238546;23;20405;-86